Time;durP1;ratioP1;P1;durP2;ratioP2;P2;SDS_P1;SDS_P2;PMS_P1;PMS_P2;Temp;Humidity;BMP_temperature;BMP_pressure;BME280_temperature;BME280_humidity;BME280_pressure;Samples;Min_cycle;Max_cycle;Signal;HPM_P1;HPM_P2
2024/01/10 00:01:26;;;;;;;12.77;8.57;;;-0.20;32.90;;;;;;10371837;28;20230;-76
2024/01/10 00:06:31;;;;;;;12.33;8.93;;;-0.20;33.00;;;;;;10362765;28;20226;-76
2024/01/10 00:11:34;;;;;;;11.27;8.37;;;-0.20;33.00;;;;;;10363215;28;20259;-76
2024/01/10 00:16:38;;;;;;;11.57;8.30;;;-0.10;33.30;;;;;;10361003;28;20313;-76
2024/01/10 00:21:42;;;;;;;12.63;8.37;;;-0.20;33.30;;;;;;10364138;28;20241;-76
2024/01/10 00:26:45;;;;;;;12.80;8.07;;;-0.20;33.30;;;;;;10362251;28;20321;-76
2024/01/10 00:31:49;;;;;;;13.23;8.60;;;-0.20;33.40;;;;;;10361602;28;20242;-76
2024/01/10 00:36:53;;;;;;;11.87;8.87;;;-0.20;33.40;;;;;;10359632;28;20242;-76
2024/01/10 00:41:56;;;;;;;12.70;8.93;;;-0.20;33.40;;;;;;10369577;28;20240;-76
2024/01/10 00:47:00;;;;;;;12.40;9.33;;;-0.20;33.60;;;;;;10369667;28;20246;-76
2024/01/10 00:52:05;;;;;;;11.83;9.40;;;-0.20;33.60;;;;;;10370270;28;20244;-76
2024/01/10 00:57:08;;;;;;;10.43;8.33;;;-0.20;33.50;;;;;;10369700;28;20234;-76
2024/01/10 01:02:11;;;;;;;12.47;8.70;;;-0.20;33.40;;;;;;10377991;28;20321;-76
2024/01/10 01:07:16;;;;;;;12.20;8.83;;;-0.20;33.40;;;;;;10369615;28;20950;-76
2024/01/10 01:12:19;;;;;;;10.30;8.10;;;-0.20;33.30;;;;;;10368303;28;20237;-76
2024/01/10 01:17:22;;;;;;;12.97;8.23;;;-0.10;33.50;;;;;;10369045;28;20258;-76
2024/01/10 01:22:27;;;;;;;12.47;9.23;;;-0.20;33.40;;;;;;10377347;28;20222;-76
2024/01/10 01:27:30;;;;;;;11.73;8.77;;;-0.20;33.50;;;;;;10368700;28;20728;-76
2024/01/10 01:32:33;;;;;;;12.43;8.67;;;-0.20;33.60;;;;;;10367845;28;20242;-76
2024/01/10 01:37:38;;;;;;;13.40;8.87;;;-0.20;33.70;;;;;;10368400;28;20798;-76
2024/01/10 01:42:41;;;;;;;12.53;9.03;;;-0.20;33.60;;;;;;10367852;28;20716;-76
2024/01/10 01:47:45;;;;;;;12.30;8.77;;;-0.10;33.70;;;;;;10367910;28;20222;-76
2024/01/10 01:52:51;;;;;;;12.27;8.77;;;-0.20;33.60;;;;;;10367696;28;20235;-76
2024/01/10 01:57:54;;;;;;;10.67;8.17;;;-0.20;33.70;;;;;;10367235;28;20233;-76
2024/01/10 02:02:59;;;;;;;10.77;7.40;;;-0.20;33.90;;;;;;10367421;28;20593;-78
2024/01/10 02:08:05;;;;;;;12.63;8.67;;;-0.20;33.80;;;;;;10360931;28;20240;-76
2024/01/10 02:13:10;;;;;;;11.33;8.43;;;-0.20;33.70;;;;;;10366928;28;20327;-76
2024/01/10 02:18:14;;;;;;;13.63;7.83;;;-0.20;33.70;;;;;;10366647;28;20261;-76
2024/01/10 02:23:19;;;;;;;10.97;8.13;;;-0.20;33.80;;;;;;10360261;28;20317;-76
2024/01/10 02:28:24;;;;;;;12.20;8.50;;;-0.20;33.80;;;;;;10366284;28;20256;-76
2024/01/10 02:33:27;;;;;;;11.30;8.10;;;-0.20;33.70;;;;;;10366253;28;20659;-76
2024/01/10 02:38:30;;;;;;;11.93;8.10;;;-0.20;33.80;;;;;;10365747;28;20648;-76
2024/01/10 02:43:35;;;;;;;9.97;7.77;;;-0.20;33.90;;;;;;10365944;28;20313;-76
2024/01/10 02:48:38;;;;;;;13.03;8.17;;;-0.20;33.80;;;;;;10365562;28;20309;-76
2024/01/10 02:53:41;;;;;;;12.87;8.80;;;-0.20;33.80;;;;;;10365319;28;20317;-76
2024/01/10 02:58:46;;;;;;;10.07;8.03;;;-0.20;33.80;;;;;;10365191;28;20320;-76
2024/01/10 03:03:49;;;;;;;8.93;7.23;;;-0.20;33.80;;;;;;10364739;28;20311;-76
2024/01/10 03:08:52;;;;;;;10.17;7.97;;;-0.20;33.90;;;;;;10365255;28;20231;-76
2024/01/10 03:14:04;;;;;;;10.90;8.10;;;-0.30;33.80;;;;;;10364375;28;20222;-76
2024/01/10 03:19:07;;;;;;;13.97;9.07;;;-0.30;33.70;;;;;;10363038;28;20317;-76
2024/01/10 03:24:11;;;;;;;12.47;8.73;;;-0.30;33.90;;;;;;10362145;28;20245;-76
2024/01/10 03:29:15;;;;;;;12.03;7.90;;;-0.30;33.80;;;;;;10364263;28;20224;-76
2024/01/10 03:34:19;;;;;;;12.70;8.70;;;-0.30;33.80;;;;;;10363458;28;20225;-76
2024/01/10 03:39:22;;;;;;;10.90;8.10;;;-0.30;33.80;;;;;;10363140;28;20333;-76
2024/01/10 03:44:28;;;;;;;11.27;7.80;;;-0.40;33.80;;;;;;10363569;28;20230;-76
2024/01/10 03:49:32;;;;;;;10.47;7.27;;;-0.40;33.90;;;;;;10363780;28;20231;-76
2024/01/10 03:54:36;;;;;;;10.73;7.67;;;-0.40;33.90;;;;;;10364315;28;20230;-76
2024/01/10 03:59:40;;;;;;;9.50;7.63;;;-0.50;34.00;;;;;;10364314;28;20317;-76
2024/01/10 04:04:44;;;;;;;9.63;7.87;;;-0.50;34.00;;;;;;10363448;28;20250;-76
2024/01/10 04:09:47;;;;;;;11.03;7.93;;;-0.50;34.00;;;;;;10363274;28;20230;-76
2024/01/10 04:14:51;;;;;;;11.70;8.07;;;-0.50;34.00;;;;;;10368297;28;20277;-75
2024/01/10 04:19:55;;;;;;;13.20;8.63;;;-0.50;33.90;;;;;;10360663;28;20276;-76
2024/01/10 04:24:59;;;;;;;12.10;8.80;;;-0.60;33.80;;;;;;10362742;28;20882;-76
2024/01/10 04:30:04;;;;;;;11.27;8.30;;;-0.60;33.80;;;;;;10362593;28;20662;-76
2024/01/10 04:35:07;;;;;;;12.60;8.47;;;-0.60;33.80;;;;;;10362485;28;20226;-76
2024/01/10 04:40:11;;;;;;;11.20;8.27;;;-0.60;33.80;;;;;;10362609;28;20717;-76
2024/01/10 04:45:16;;;;;;;11.27;7.93;;;-0.70;33.80;;;;;;10357690;28;20313;-76
2024/01/10 04:50:23;;;;;;;9.87;7.43;;;-0.70;33.80;;;;;;10369922;28;20230;-76
2024/01/10 04:55:27;;;;;;;15.30;8.43;;;-0.80;33.90;;;;;;10369933;28;20280;-76
2024/01/10 05:00:32;;;;;;;10.87;7.87;;;-0.80;34.00;;;;;;10369303;28;20244;-76
2024/01/10 05:05:35;;;;;;;10.80;8.30;;;-0.80;34.10;;;;;;10367656;28;20234;-76
2024/01/10 05:10:38;;;;;;;17.23;11.03;;;-0.80;34.20;;;;;;10371498;28;20244;-76
2024/01/10 05:15:43;;;;;;;15.53;10.37;;;-0.80;35.00;;;;;;10367428;28;20245;-76
2024/01/10 05:20:46;;;;;;;15.90;10.47;;;-0.80;34.30;;;;;;10368392;28;20368;-76
2024/01/10 05:25:49;;;;;;;13.93;10.30;;;-0.80;34.30;;;;;;10367757;28;20579;-76
2024/01/10 05:30:54;;;;;;;13.50;9.27;;;-0.80;34.30;;;;;;10367704;28;20230;-76
2024/01/10 05:35:59;;;;;;;10.80;8.57;;;-0.80;34.30;;;;;;10364726;28;20939;-76
2024/01/10 05:41:02;;;;;;;16.73;8.73;;;-0.80;34.30;;;;;;10366332;28;20222;-75
2024/01/10 05:46:06;;;;;;;10.70;8.47;;;-0.80;34.30;;;;;;10361547;28;20226;-75
2024/01/10 05:51:10;;;;;;;10.57;8.37;;;-0.80;34.30;;;;;;10363910;28;20230;-75
2024/01/10 05:56:13;;;;;;;13.63;10.97;;;-0.90;34.30;;;;;;10363584;28;21250;-75
2024/01/10 06:01:18;;;;;;;12.60;9.87;;;-0.90;34.40;;;;;;10359939;28;20273;-75
2024/01/10 06:06:22;;;;;;;13.53;10.43;;;-0.80;34.40;;;;;;10362713;28;20292;-75
2024/01/10 06:11:25;;;;;;;14.27;9.50;;;-0.80;35.00;;;;;;10371571;28;20705;-75
2024/01/10 06:16:30;;;;;;;18.80;11.97;;;-0.80;35.20;;;;;;10367719;28;20226;-75
2024/01/10 06:21:34;;;;;;;19.93;12.50;;;-0.80;35.00;;;;;;10400261;28;20692;-73
2024/01/10 06:26:38;;;;;;;16.27;12.20;;;-0.70;34.90;;;;;;10408339;28;20344;-73
2024/01/10 06:31:42;;;;;;;17.57;10.63;;;-0.70;34.70;;;;;;10407830;28;20232;-73
2024/01/10 06:36:45;;;;;;;14.93;9.90;;;-0.70;35.20;;;;;;10407805;28;20225;-73
2024/01/10 06:41:49;;;;;;;12.53;8.90;;;-0.70;35.00;;;;;;10407639;28;20750;-73
2024/01/10 06:46:54;;;;;;;14.57;10.20;;;-0.70;34.80;;;;;;10407239;28;20604;-74
2024/01/10 06:51:58;;;;;;;14.63;10.70;;;-0.70;34.70;;;;;;10407093;28;20236;-74
2024/01/10 06:57:01;;;;;;;21.27;13.37;;;-0.70;34.70;;;;;;10407466;28;20304;-74
2024/01/10 07:02:06;;;;;;;18.07;11.43;;;-0.80;34.60;;;;;;10407026;28;20309;-74
2024/01/10 07:07:11;;;;;;;17.83;12.23;;;-0.80;34.60;;;;;;10389593;28;20240;-74
2024/01/10 07:12:14;;;;;;;18.60;12.10;;;-0.80;34.70;;;;;;10365889;28;20838;-77
2024/01/10 07:17:19;;;;;;;15.17;11.87;;;-0.80;34.90;;;;;;10351304;28;20230;-77
2024/01/10 07:22:22;;;;;;;18.37;12.50;;;-0.90;34.80;;;;;;10351045;28;20230;-77
2024/01/10 07:27:25;;;;;;;17.33;12.00;;;-0.90;34.80;;;;;;10353394;28;20222;-77
2024/01/10 07:32:30;;;;;;;16.47;12.10;;;-0.80;34.90;;;;;;10357898;28;20238;-77
2024/01/10 07:37:33;;;;;;;18.20;12.93;;;-0.80;35.00;;;;;;10356960;28;20230;-77
2024/01/10 07:42:37;;;;;;;19.23;13.43;;;-0.80;34.90;;;;;;10355165;28;20325;-77
2024/01/10 07:47:41;;;;;;;15.97;11.50;;;-0.80;34.90;;;;;;10363230;28;20238;-76
2024/01/10 07:52:45;;;;;;;19.60;12.73;;;-0.80;34.90;;;;;;10355142;28;20250;-77
2024/01/10 07:57:49;;;;;;;22.30;14.80;;;-0.90;35.00;;;;;;10362038;28;20237;-77
2024/01/10 08:02:54;;;;;;;22.13;14.63;;;-1.00;35.00;;;;;;10356845;28;20277;-77
2024/01/10 08:07:58;;;;;;;22.87;13.53;;;-1.10;35.30;;;;;;10351830;28;20660;-77
2024/01/10 08:13:01;;;;;;;21.33;13.80;;;-1.30;35.40;;;;;;10359795;28;20265;-77
2024/01/10 08:18:07;;;;;;;19.70;13.73;;;-1.30;35.80;;;;;;10354969;28;20351;-77
2024/01/10 08:23:10;;;;;;;21.27;13.43;;;-1.30;35.90;;;;;;10367439;28;20230;-77
2024/01/10 08:28:14;;;;;;;20.77;13.20;;;-1.40;36.10;;;;;;10370375;28;20230;-77
2024/01/10 08:33:18;;;;;;;21.63;13.30;;;-1.40;36.20;;;;;;10363817;28;20226;-77
2024/01/10 08:38:22;;;;;;;19.83;12.43;;;-1.30;36.60;;;;;;10365665;28;20234;-77
2024/01/10 08:43:25;;;;;;;19.73;13.93;;;-1.20;36.60;;;;;;10367366;28;20230;-77
2024/01/10 08:48:29;;;;;;;19.90;13.10;;;-1.00;36.60;;;;;;10367558;28;20603;-77
2024/01/10 08:53:34;;;;;;;17.47;12.77;;;-1.00;36.60;;;;;;10369196;28;20238;-77
2024/01/10 08:58:38;;;;;;;19.40;12.77;;;-0.90;36.70;;;;;;10367416;28;20231;-78
2024/01/10 09:03:42;;;;;;;23.57;14.63;;;-0.70;36.90;;;;;;10366450;28;20226;-77
2024/01/10 09:08:46;;;;;;;21.73;14.57;;;-0.50;37.00;;;;;;10362364;28;20269;-78
2024/01/10 09:13:50;;;;;;;24.00;16.00;;;-0.30;37.00;;;;;;10373942;28;20325;-78
2024/01/10 09:18:57;;;;;;;23.23;16.27;;;-0.20;36.70;;;;;;10358427;28;20310;-78
2024/01/10 09:24:00;;;;;;;20.80;14.40;;;-0.20;36.40;;;;;;10376953;28;20242;-78
2024/01/10 09:29:16;;;;;;;20.73;14.17;;;-0.20;36.50;;;;;;10372266;28;20643;-79
2024/01/10 09:34:20;;;;;;;23.37;15.77;;;-0.20;36.60;;;;;;10376406;28;20229;-79
2024/01/10 09:39:24;;;;;;;18.90;14.13;;;-0.20;36.60;;;;;;10376245;28;20249;-78
2024/01/10 09:44:29;;;;;;;22.50;14.17;;;-0.20;36.60;;;;;;10374679;28;20241;-78
2024/01/10 09:49:33;;;;;;;18.23;13.73;;;-0.10;36.70;;;;;;10369584;28;20230;-78
2024/01/10 09:54:40;;;;;;;18.07;13.60;;;0.00;36.90;;;;;;10364596;28;20238;-77
2024/01/10 09:59:46;;;;;;;18.17;13.83;;;0.10;36.90;;;;;;10370000;28;20614;-77
2024/01/10 10:04:57;;;;;;;18.80;13.70;;;0.10;36.70;;;;;;10359714;28;20292;-78
2024/01/10 10:10:01;;;;;;;21.43;15.07;;;0.20;36.80;;;;;;10361352;28;20266;-77
2024/01/10 10:15:12;;;;;;;18.70;13.60;;;0.30;36.90;;;;;;10359637;28;20696;-77
2024/01/10 10:20:21;;;;;;;20.40;14.03;;;0.50;37.10;;;;;;10363679;28;21122;-77
2024/01/10 10:25:25;;;;;;;18.70;14.47;;;0.70;37.10;;;;;;10359349;28;20999;-77
2024/01/10 10:30:29;;;;;;;20.13;15.07;;;0.90;37.00;;;;;;10358790;28;21141;-77
2024/01/10 10:35:35;;;;;;;21.57;15.13;;;1.10;36.60;;;;;;10357679;28;20226;-77
2024/01/10 10:40:44;;;;;;;19.30;15.13;;;1.20;36.10;;;;;;10355146;28;20226;-76
2024/01/10 10:45:51;;;;;;;20.37;15.67;;;1.20;36.20;;;;;;10351808;28;20739;-77
2024/01/10 10:51:06;;;;;;;20.93;15.40;;;1.30;36.20;;;;;;10351646;28;20238;-77
2024/01/10 10:56:10;;;;;;;21.37;15.43;;;1.40;36.20;;;;;;10351784;28;20314;-76
2024/01/10 11:01:15;;;;;;;20.83;15.40;;;1.40;36.40;;;;;;10351889;28;20237;-77
2024/01/10 11:06:21;;;;;;;19.40;14.90;;;1.60;36.40;;;;;;10348201;28;20285;-76
2024/01/10 11:11:37;;;;;;;22.33;16.07;;;1.60;36.30;;;;;;10348007;28;20241;-76
2024/01/10 11:17:04;;;;;;;20.80;15.27;;;1.70;36.30;;;;;;10342151;28;20235;-75
2024/01/10 11:22:23;;;;;;;20.47;15.77;;;1.90;36.10;;;;;;10344513;28;20316;-75
2024/01/10 11:27:27;;;;;;;20.43;15.67;;;2.20;36.30;;;;;;10338493;28;20233;-73
2024/01/10 11:32:31;;;;;;;21.53;16.93;;;2.30;36.20;;;;;;10342342;28;20237;-74
2024/01/10 11:37:43;;;;;;;23.43;17.43;;;2.50;36.20;;;;;;10339887;28;20238;-75
2024/01/10 11:42:47;;;;;;;22.37;16.60;;;2.60;35.70;;;;;;10341394;28;20748;-76
2024/01/10 11:47:51;;;;;;;21.17;17.07;;;2.80;35.80;;;;;;10343530;28;20230;-76
2024/01/10 11:52:56;;;;;;;22.77;17.27;;;2.80;35.00;;;;;;10337503;28;20292;-75
2024/01/10 11:58:09;;;;;;;22.07;17.07;;;2.80;35.10;;;;;;10339382;28;20230;-74
2024/01/10 12:03:13;;;;;;;24.07;18.53;;;2.80;35.00;;;;;;10328899;28;20245;-75
2024/01/10 12:08:17;;;;;;;23.37;16.73;;;2.80;35.00;;;;;;10335969;28;20234;-75
2024/01/10 12:13:21;;;;;;;19.83;15.40;;;2.80;35.20;;;;;;10315595;28;20250;-76
2024/01/10 12:18:24;;;;;;;20.93;17.10;;;2.80;35.20;;;;;;10324592;28;20701;-76
2024/01/10 12:23:31;;;;;;;23.90;17.50;;;2.90;35.40;;;;;;10339390;28;20230;-77
2024/01/10 12:28:35;;;;;;;24.63;18.50;;;3.10;35.60;;;;;;10345208;28;20342;-75
2024/01/10 12:33:39;;;;;;;22.63;18.13;;;3.00;35.40;;;;;;10335240;28;20652;-75
2024/01/10 12:38:45;;;;;;;22.67;18.17;;;3.00;35.20;;;;;;10348065;28;20227;-74
2024/01/10 12:43:51;;;;;;;25.40;18.63;;;3.00;35.20;;;;;;10341524;28;20258;-73
2024/01/10 12:49:04;;;;;;;21.00;16.90;;;2.90;35.40;;;;;;10347790;28;20230;-74
2024/01/10 12:54:09;;;;;;;22.97;17.00;;;2.80;35.00;;;;;;10345744;28;20265;-73
2024/01/10 12:59:13;;;;;;;24.80;18.23;;;2.80;35.40;;;;;;10343174;28;20748;-73
2024/01/10 13:04:17;;;;;;;23.37;18.57;;;2.90;35.60;;;;;;10343865;28;20226;-74
2024/01/10 13:09:22;;;;;;;22.60;17.80;;;3.00;35.40;;;;;;10341380;28;20261;-75
2024/01/10 13:14:25;;;;;;;23.83;18.23;;;3.10;35.20;;;;;;10335698;28;20709;-76
2024/01/10 13:19:28;;;;;;;23.87;18.07;;;3.10;36.00;;;;;;10340126;28;20333;-76
2024/01/10 13:24:33;;;;;;;25.87;20.07;;;3.20;35.60;;;;;;10339893;28;20264;-77
2024/01/10 13:29:38;;;;;;;23.73;17.50;;;3.20;35.40;;;;;;10340204;28;20321;-74
2024/01/10 13:34:41;;;;;;;26.20;19.50;;;3.20;35.30;;;;;;10336204;28;20229;-75
2024/01/10 13:39:45;;;;;;;22.53;18.33;;;3.20;35.30;;;;;;10345947;28;20241;-75
2024/01/10 13:44:49;;;;;;;24.53;17.87;;;3.20;35.30;;;;;;10343144;28;20321;-75
2024/01/10 13:49:53;;;;;;;23.83;18.77;;;3.20;35.30;;;;;;10338850;28;20988;-76
2024/01/10 13:54:58;;;;;;;24.67;19.07;;;3.20;35.30;;;;;;10351828;28;20277;-73
2024/01/10 14:00:01;;;;;;;25.30;19.47;;;3.20;35.30;;;;;;10353162;28;20234;-76
2024/01/10 14:05:06;;;;;;;27.97;19.03;;;3.20;35.30;;;;;;10349844;28;20226;-75
2024/01/10 14:10:12;;;;;;;23.77;17.87;;;3.20;35.40;;;;;;10345859;28;20234;-76
2024/01/10 14:15:16;;;;;;;26.57;19.33;;;3.10;35.20;;;;;;10342651;28;20246;-76
2024/01/10 14:20:21;;;;;;;27.70;20.40;;;3.10;35.20;;;;;;10343457;28;20234;-77
2024/01/10 14:25:26;;;;;;;24.90;19.43;;;3.10;35.20;;;;;;10344988;28;20643;-76
2024/01/10 14:30:29;;;;;;;24.33;19.67;;;3.10;35.20;;;;;;10349497;28;20232;-76
2024/01/10 14:35:32;;;;;;;27.53;21.30;;;3.00;35.30;;;;;;10350204;28;20246;-76
2024/01/10 14:40:37;;;;;;;27.97;21.23;;;2.90;35.40;;;;;;10350010;28;21133;-76
2024/01/10 14:45:41;;;;;;;30.13;21.43;;;2.80;35.40;;;;;;10340754;28;20226;-76
2024/01/10 14:50:44;;;;;;;24.63;19.67;;;2.80;35.70;;;;;;10351935;28;20222;-75
2024/01/10 14:55:48;;;;;;;28.57;21.90;;;2.80;35.70;;;;;;10346049;28;20226;-75
2024/01/10 15:00:52;;;;;;;31.70;23.23;;;2.70;35.80;;;;;;10350970;28;20226;-75
2024/01/10 15:05:55;;;;;;;30.20;22.00;;;2.70;35.80;;;;;;10349663;28;20717;-75
2024/01/10 15:11:01;;;;;;;31.30;24.13;;;2.70;35.80;;;;;;10345677;28;20241;-75
2024/01/10 15:16:04;;;;;;;24.87;18.17;;;2.60;35.80;;;;;;10349918;28;20297;-73
2024/01/10 15:21:08;;;;;;;34.27;24.87;;;2.50;36.50;;;;;;10347238;28;20596;-73
2024/01/10 15:26:17;;;;;;;33.03;23.73;;;2.50;36.10;;;;;;10343332;28;20636;-74
2024/01/10 15:31:22;;;;;;;32.23;25.47;;;2.50;35.90;;;;;;10361696;28;20245;-74
2024/01/10 15:36:25;;;;;;;33.03;22.10;;;2.50;35.90;;;;;;10362411;28;20272;-74
2024/01/10 15:41:32;;;;;;;31.77;23.60;;;2.50;35.80;;;;;;10362439;28;20721;-74
2024/01/10 15:46:35;;;;;;;34.60;24.90;;;2.40;35.80;;;;;;10363165;28;20232;-73
2024/01/10 15:51:38;;;;;;;35.27;25.57;;;2.30;35.80;;;;;;10362854;28;20238;-74
2024/01/10 15:56:43;;;;;;;33.43;24.20;;;2.30;35.90;;;;;;10357196;28;20256;-73
2024/01/10 16:01:46;;;;;;;30.13;23.63;;;2.20;35.90;;;;;;10362219;28;20321;-73
2024/01/10 16:06:49;;;;;;;31.43;23.90;;;2.00;35.80;;;;;;10358481;28;20230;-74
2024/01/10 16:11:55;;;;;;;33.53;24.70;;;2.00;36.00;;;;;;10362698;28;20732;-73
2024/01/10 16:16:58;;;;;;;34.57;25.67;;;1.90;36.00;;;;;;10356251;28;20226;-73
2024/01/10 16:22:02;;;;;;;34.43;26.40;;;1.90;36.00;;;;;;10356096;28;20218;-73
2024/01/10 16:27:06;;;;;;;35.93;25.33;;;1.70;36.00;;;;;;10359832;28;20230;-74
2024/01/10 16:32:09;;;;;;;33.30;25.53;;;1.60;36.00;;;;;;10354636;28;20250;-75
2024/01/10 16:37:14;;;;;;;34.00;23.33;;;1.60;36.00;;;;;;10356462;28;20301;-76
2024/01/10 16:42:19;;;;;;;32.90;22.93;;;1.60;36.00;;;;;;10359407;28;20223;-74
2024/01/10 16:47:23;;;;;;;30.37;23.10;;;1.50;36.10;;;;;;10366964;28;20639;-72
2024/01/10 16:52:26;;;;;;;33.00;23.80;;;1.50;36.10;;;;;;10364974;28;20651;-73
2024/01/10 16:57:31;;;;;;;33.17;24.47;;;1.40;36.10;;;;;;10365283;28;20226;-75
2024/01/10 17:02:37;;;;;;;35.90;26.30;;;1.40;36.40;;;;;;10363683;28;20265;-75
2024/01/10 17:07:40;;;;;;;37.30;25.40;;;1.30;36.40;;;;;;10370419;28;20233;-75
2024/01/10 17:12:45;;;;;;;37.37;27.30;;;1.40;36.40;;;;;;10371782;28;20316;-73
2024/01/10 17:17:49;;;;;;;34.57;24.97;;;1.50;36.50;;;;;;10381362;28;20234;-74
2024/01/10 17:22:52;;;;;;;32.20;25.17;;;1.50;36.70;;;;;;10364364;28;20230;-74
2024/01/10 17:27:57;;;;;;;32.83;24.63;;;1.70;36.90;;;;;;10362989;28;20222;-74
2024/01/10 17:33:02;;;;;;;34.67;24.50;;;1.70;36.50;;;;;;10357188;28;20268;-73
2024/01/10 17:38:08;;;;;;;34.77;25.37;;;1.80;36.40;;;;;;10361969;28;20234;-74
2024/01/10 17:43:13;;;;;;;35.43;25.20;;;1.90;36.40;;;;;;10356605;28;20226;-74
2024/01/10 17:48:16;;;;;;;32.77;23.23;;;1.90;36.20;;;;;;10363724;28;20766;-73
2024/01/10 17:53:21;;;;;;;33.43;23.90;;;2.00;36.20;;;;;;10368921;28;20303;-73
2024/01/10 17:58:26;;;;;;;30.93;22.97;;;2.00;36.20;;;;;;10366732;28;20222;-74
2024/01/10 18:03:29;;;;;;;34.23;24.87;;;2.20;36.20;;;;;;10356236;28;20238;-73
2024/01/10 18:08:32;;;;;;;33.83;23.80;;;2.20;36.00;;;;;;10365267;28;20573;-73
2024/01/10 18:13:37;;;;;;;33.53;24.37;;;2.10;35.80;;;;;;10366120;28;20322;-74
2024/01/10 18:18:40;;;;;;;33.47;24.50;;;2.20;35.70;;;;;;10366371;28;20226;-73
2024/01/10 18:23:44;;;;;;;29.10;21.20;;;2.20;35.60;;;;;;10354627;28;20266;-75
2024/01/10 18:28:49;;;;;;;30.60;22.23;;;2.20;35.50;;;;;;10348861;28;20286;-75
2024/01/10 18:33:52;;;;;;;32.57;24.30;;;2.20;35.30;;;;;;10358358;28;20261;-77
2024/01/10 18:38:56;;;;;;;36.30;24.57;;;2.10;35.30;;;;;;10355814;28;20230;-75
2024/01/10 18:44:02;;;;;;;33.67;23.43;;;2.10;35.30;;;;;;10355865;28;20818;-77
2024/01/10 18:49:07;;;;;;;31.50;23.33;;;2.10;35.30;;;;;;10352663;28;20728;-76
2024/01/10 18:54:11;;;;;;;34.57;24.50;;;2.20;35.40;;;;;;10357814;28;20226;-76
2024/01/10 18:59:15;;;;;;;32.23;24.60;;;2.10;35.90;;;;;;10352924;28;20222;-76
2024/01/10 19:04:19;;;;;;;31.33;22.77;;;2.00;34.70;;;;;;10352554;28;20250;-76
2024/01/10 19:09:22;;;;;;;33.07;23.30;;;1.80;34.80;;;;;;10356974;28;21170;-76
2024/01/10 19:14:27;;;;;;;35.33;24.37;;;1.80;35.10;;;;;;10356167;28;20714;-76
2024/01/10 19:19:35;;;;;;;35.37;25.03;;;1.60;35.00;;;;;;10354716;28;20226;-76
2024/01/10 19:24:38;;;;;;;36.43;24.27;;;1.60;34.90;;;;;;10350788;28;20239;-77
2024/01/10 19:29:43;;;;;;;30.70;22.43;;;1.40;35.00;;;;;;10349110;28;20868;-76
2024/01/10 19:34:47;;;;;;;36.33;24.57;;;1.20;35.10;;;;;;10352595;28;20285;-76
2024/01/10 19:39:51;;;;;;;34.23;24.30;;;1.10;35.10;;;;;;10352110;28;20284;-78
2024/01/10 19:44:55;;;;;;;43.40;27.80;;;0.90;35.00;;;;;;10350164;28;20320;-75
2024/01/10 19:49:59;;;;;;;34.63;24.83;;;0.70;35.10;;;;;;10354839;28;20258;-76
2024/01/10 19:55:03;;;;;;;37.17;25.63;;;0.70;35.30;;;;;;10358776;28;20237;-79
2024/01/10 20:00:08;;;;;;;34.70;24.13;;;0.50;35.30;;;;;;10356744;28;20433;-77
2024/01/10 20:05:16;;;;;;;35.33;22.97;;;0.30;35.30;;;;;;10355389;28;20720;-77
2024/01/10 20:10:26;;;;;;;32.90;22.27;;;0.30;35.50;;;;;;10356020;28;20309;-79
2024/01/10 20:15:31;;;;;;;35.00;22.73;;;0.10;35.70;;;;;;10363216;28;20232;-78
2024/01/10 20:20:34;;;;;;;33.40;21.90;;;0.10;35.70;;;;;;10363877;28;20266;-80
2024/01/10 20:25:37;;;;;;;32.83;20.77;;;0.00;35.60;;;;;;10365671;28;20253;-79
2024/01/10 20:30:42;;;;;;;32.53;21.57;;;-0.10;35.60;;;;;;10363472;28;20234;-78
2024/01/10 20:35:47;;;;;;;30.90;19.67;;;-0.30;35.60;;;;;;10365023;28;20260;-77
2024/01/10 20:40:50;;;;;;;31.57;19.33;;;-0.40;35.70;;;;;;10364060;28;20257;-76
2024/01/10 20:45:55;;;;;;;32.77;20.13;;;-0.50;35.80;;;;;;10364686;28;20238;-76
2024/01/10 20:50:58;;;;;;;31.10;20.30;;;-0.60;36.00;;;;;;10361770;28;20779;-76
2024/01/10 20:56:02;;;;;;;32.67;20.27;;;-0.60;36.20;;;;;;10363369;28;20230;-77
2024/01/10 21:01:07;;;;;;;28.77;18.47;;;-0.60;36.30;;;;;;10358191;28;20238;-77
2024/01/10 21:06:12;;;;;;;31.00;19.47;;;-0.60;36.60;;;;;;10359094;28;20238;-79
2024/01/10 21:11:18;;;;;;;33.50;20.77;;;-0.50;36.60;;;;;;10358904;28;20231;-77
2024/01/10 21:16:22;;;;;;;32.87;19.27;;;-0.40;36.60;;;;;;10359284;28;20265;-77
2024/01/10 21:21:26;;;;;;;30.27;18.83;;;-0.30;36.60;;;;;;10358340;28;20313;-77
2024/01/10 21:26:29;;;;;;;29.10;18.60;;;-0.20;36.50;;;;;;10365201;28;20343;-77
2024/01/10 21:31:33;;;;;;;28.57;19.07;;;-0.10;36.40;;;;;;10360322;28;20624;-77
2024/01/10 21:36:37;;;;;;;31.10;20.93;;;-0.10;36.20;;;;;;10354806;28;20257;-77
2024/01/10 21:41:40;;;;;;;27.20;16.70;;;0.00;36.20;;;;;;10338071;28;20238;-77
2024/01/10 21:46:45;;;;;;;29.50;19.53;;;0.10;36.10;;;;;;10359498;28;20239;-77
2024/01/10 21:51:48;;;;;;;30.47;20.27;;;0.10;36.10;;;;;;10340688;28;20234;-77
2024/01/10 21:56:52;;;;;;;31.67;19.70;;;0.10;36.00;;;;;;10345514;28;20810;-77
2024/01/10 22:01:56;;;;;;;28.10;18.40;;;0.10;35.80;;;;;;10356654;28;20293;-77
2024/01/10 22:07:00;;;;;;;29.10;19.40;;;0.10;36.50;;;;;;10360236;28;20238;-77
2024/01/10 22:12:03;;;;;;;31.13;20.20;;;0.10;35.80;;;;;;10354663;28;20286;-77
2024/01/10 22:17:08;;;;;;;31.23;20.10;;;0.20;35.60;;;;;;10357065;28;20285;-77
2024/01/10 22:22:12;;;;;;;28.97;19.17;;;0.10;35.50;;;;;;10355493;28;20237;-78
2024/01/10 22:27:15;;;;;;;26.93;18.67;;;0.10;35.50;;;;;;10362225;28;20451;-77
2024/01/10 22:32:19;;;;;;;27.77;18.90;;;0.10;35.60;;;;;;10357167;28;20223;-77
2024/01/10 22:37:23;;;;;;;28.93;18.70;;;0.10;35.60;;;;;;10360063;28;20645;-78
2024/01/10 22:42:26;;;;;;;26.83;17.27;;;0.10;35.50;;;;;;10360119;28;21173;-78
2024/01/10 22:47:33;;;;;;;28.70;18.50;;;0.10;35.50;;;;;;10360014;28;20309;-78
2024/01/10 22:52:37;;;;;;;28.97;19.13;;;0.10;35.30;;;;;;10361957;28;20238;-77
2024/01/10 22:57:41;;;;;;;28.80;17.87;;;0.10;35.30;;;;;;10361359;28;20223;-77
2024/01/10 23:02:45;;;;;;;22.63;15.33;;;0.10;35.30;;;;;;10360719;28;20305;-78
2024/01/10 23:07:49;;;;;;;25.67;16.90;;;0.10;35.20;;;;;;10360326;28;20728;-78
2024/01/10 23:12:52;;;;;;;26.47;18.60;;;0.10;35.20;;;;;;10364293;28;20218;-77
2024/01/10 23:17:57;;;;;;;24.73;17.10;;;0.10;35.10;;;;;;10359455;28;20342;-77
2024/01/10 23:23:00;;;;;;;25.37;17.17;;;0.00;35.00;;;;;;10354272;28;20242;-78
2024/01/10 23:28:04;;;;;;;25.97;17.77;;;0.00;35.10;;;;;;10357064;28;20226;-77
2024/01/10 23:33:09;;;;;;;27.37;18.23;;;0.00;35.10;;;;;;10359265;28;20318;-77
2024/01/10 23:38:12;;;;;;;26.40;17.07;;;-0.10;35.00;;;;;;10360984;28;20248;-78
2024/01/10 23:43:17;;;;;;;21.93;14.70;;;-0.10;35.00;;;;;;10358304;28;20321;-78
2024/01/10 23:48:30;;;;;;;26.93;17.43;;;0.00;35.10;;;;;;10359990;28;20732;-78
2024/01/10 23:53:34;;;;;;;27.17;17.93;;;-0.10;35.00;;;;;;10362834;28;20223;-78
2024/01/10 23:58:39;;;;;;;27.43;18.83;;;-0.20;34.90;;;;;;10360219;28;20237;-77
